createdAt,value
2018-03-22T00:00:17.541Z,79.28
2018-03-22T00:02:45.880Z,79.07
2018-03-22T00:05:14.809Z,79.10
2018-03-22T00:07:43.518Z,78.88
2018-03-22T00:10:12.608Z,78.79
2018-03-22T00:12:41.737Z,79.31
2018-03-22T00:15:10.064Z,79.80
2018-03-22T00:17:38.380Z,80.92
2018-03-22T00:20:06.764Z,80.92
2018-03-22T00:22:39.002Z,81.40
2018-03-22T00:25:07.358Z,81.23
2018-03-22T00:27:35.689Z,81.38
2018-03-22T00:30:04.033Z,82.40
2018-03-22T00:32:33.120Z,82.53
2018-03-22T00:35:01.482Z,82.19
2018-03-22T00:37:29.807Z,81.91
2018-03-22T00:39:58.516Z,81.71
2018-03-22T00:42:26.832Z,81.99
2018-03-22T00:44:55.152Z,82.07
2018-03-22T00:47:23.503Z,81.97
2018-03-22T00:49:52.868Z,82.60
2018-03-22T00:52:21.583Z,82.83
2018-03-22T00:54:49.896Z,82.72
2018-03-22T00:57:18.209Z,82.87
2018-03-22T00:59:46.574Z,82.41
2018-03-22T01:02:15.412Z,82.50
2018-03-22T01:04:44.484Z,81.50
2018-03-22T01:07:12.903Z,80.95
2018-03-22T01:09:41.878Z,81.25
2018-03-22T01:12:10.970Z,81.42
2018-03-22T01:14:39.319Z,81.54
2018-03-22T01:17:08.259Z,81.88
2018-03-22T01:19:36.576Z,81.84
2018-03-22T01:22:04.953Z,81.72
2018-03-22T01:24:33.348Z,81.69
2018-03-22T01:27:01.664Z,81.23
2018-03-22T01:29:31.269Z,81.05
2018-03-22T01:31:59.604Z,81.29
2018-03-22T01:34:27.928Z,80.82
2018-03-22T01:36:57.078Z,80.39
2018-03-22T01:39:25.387Z,80.79
2018-03-22T01:41:54.275Z,80.82
2018-03-22T01:44:23.234Z,81.15
2018-03-22T01:46:51.552Z,81.37
2018-03-22T01:49:19.875Z,81.29
2018-03-22T01:51:48.226Z,81.28
2018-03-22T01:54:16.544Z,81.34
2018-03-22T01:56:44.859Z,81.34
2018-03-22T01:59:13.907Z,81.61
2018-03-22T02:01:42.713Z,82.12
2018-03-22T02:04:11.059Z,82.61
2018-03-22T02:06:40.496Z,83.06
2018-03-22T02:09:10.211Z,83.46
2018-03-22T02:11:38.600Z,83.40
2018-03-22T02:14:06.911Z,83.59
2018-03-22T02:16:35.252Z,83.45
2018-03-22T02:19:03.573Z,83.25
2018-03-22T02:21:33.122Z,83.43
2018-03-22T02:24:01.477Z,83.79
2018-03-22T02:26:29.834Z,84.36
2018-03-22T02:28:58.205Z,84.38
2018-03-22T02:31:26.491Z,85.11
2018-03-22T02:33:54.837Z,85.00
2018-03-22T02:36:23.842Z,85.31
2018-03-22T02:38:52.384Z,85.74
2018-03-22T02:41:20.705Z,85.25
2018-03-22T02:43:49.204Z,85.20
2018-03-22T02:46:17.786Z,85.38
2018-03-22T02:48:46.362Z,85.13
2018-03-22T02:51:15.037Z,85.80
2018-03-22T02:53:43.364Z,86.62
2018-03-22T02:56:11.684Z,86.72
2018-03-22T02:58:40.128Z,86.77
2018-03-22T03:01:08.437Z,86.62
2018-03-22T03:03:36.882Z,85.91
2018-03-22T03:06:05.204Z,86.09
2018-03-22T03:08:33.524Z,85.97
2018-03-22T03:11:01.864Z,86.01
2018-03-22T03:13:30.188Z,86.28
2018-03-22T03:15:58.760Z,86.25
2018-03-22T03:18:27.120Z,86.46
2018-03-22T03:20:55.464Z,86.87
2018-03-22T03:23:23.787Z,87.05
2018-03-22T03:25:52.164Z,87.19
2018-03-22T03:28:20.580Z,86.74
2018-03-22T03:30:48.902Z,86.53
2018-03-22T03:33:17.692Z,86.51
2018-03-22T03:35:46.778Z,86.40
2018-03-22T03:38:16.143Z,86.27
2018-03-22T03:40:44.495Z,86.03
2018-03-22T03:43:12.816Z,86.36
2018-03-22T03:45:41.276Z,86.56
2018-03-22T03:48:10.237Z,86.89
2018-03-22T03:50:38.590Z,86.95
2018-03-22T03:53:06.905Z,87.15
2018-03-22T03:55:35.288Z,87.30
2018-03-22T03:58:04.008Z,87.68
2018-03-22T04:00:32.333Z,87.72
2018-03-22T04:03:00.692Z,87.78
2018-03-22T04:05:29.771Z,87.90
2018-03-22T04:07:58.104Z,87.75
2018-03-22T04:10:26.690Z,87.82
2018-03-22T04:12:54.996Z,87.99
2018-03-22T04:15:23.340Z,87.98
2018-03-22T04:17:52.137Z,88.26
2018-03-22T04:20:20.476Z,88.54
2018-03-22T04:22:49.493Z,88.72
2018-03-22T04:25:17.803Z,88.68
2018-03-22T04:27:46.990Z,88.70
2018-03-22T04:30:15.340Z,88.39
2018-03-22T04:32:43.661Z,87.74
2018-03-22T04:35:12.016Z,86.78
2018-03-22T04:37:41.104Z,85.95
2018-03-22T04:40:10.685Z,85.87
2018-03-22T04:42:39.765Z,85.42
2018-03-22T04:45:08.321Z,85.31
2018-03-22T04:47:36.634Z,85.25
2018-03-22T04:50:06.352Z,85.39
2018-03-22T04:52:34.736Z,85.68
2018-03-22T04:55:03.238Z,85.81
2018-03-22T04:57:31.544Z,85.76
2018-03-22T04:59:59.925Z,85.57
2018-03-22T05:02:28.304Z,85.50
2018-03-22T05:04:56.613Z,85.53
2018-03-22T05:07:24.948Z,85.61
2018-03-22T05:09:53.314Z,85.63
2018-03-22T05:12:22.140Z,85.49
2018-03-22T05:14:50.857Z,85.38
2018-03-22T05:17:19.696Z,85.38
2018-03-22T05:19:48.017Z,85.59
2018-03-22T05:22:16.394Z,85.81
2018-03-22T05:24:44.733Z,85.46
2018-03-22T05:27:13.056Z,85.24
2018-03-22T05:29:41.746Z,85.18
2018-03-22T05:32:10.122Z,84.69
2018-03-22T05:34:38.495Z,84.42
2018-03-22T05:37:07.082Z,84.33
2018-03-22T05:39:36.160Z,84.08
2018-03-22T05:42:04.480Z,83.96
2018-03-22T05:44:32.852Z,83.18
2018-03-22T05:47:05.441Z,82.30
2018-03-22T05:49:34.017Z,81.19
2018-03-22T05:52:02.359Z,80.40
2018-03-22T05:54:30.689Z,79.88
2018-03-22T05:56:59.064Z,79.20
2018-03-22T05:59:27.381Z,78.76
2018-03-22T06:01:56.663Z,78.20
2018-03-22T06:04:25.038Z,77.59
2018-03-22T06:06:53.364Z,78.08
2018-03-22T06:09:21.680Z,77.44
2018-03-22T06:11:50.060Z,77.77
2018-03-22T06:14:18.383Z,77.66
2018-03-22T06:16:46.839Z,77.77
2018-03-22T06:19:15.160Z,77.34
2018-03-22T06:21:44.184Z,76.26
2018-03-22T06:24:12.913Z,76.23
2018-03-22T06:26:41.805Z,75.64
2018-03-22T06:29:10.203Z,74.75
2018-03-22T06:31:38.548Z,72.18
2018-03-22T06:34:07.128Z,69.89
2018-03-22T06:36:35.923Z,69.00
2018-03-22T06:39:05.151Z,68.78
2018-03-22T06:41:34.096Z,68.57
2018-03-22T06:44:03.084Z,67.81
2018-03-22T06:46:31.413Z,65.77
2018-03-22T06:48:59.773Z,60.61
2018-03-22T06:51:28.793Z,58.16
2018-03-22T06:53:57.113Z,56.15
2018-03-22T06:56:25.460Z,54.72
2018-03-22T06:58:53.777Z,52.72
2018-03-22T07:01:22.116Z,52.87
2018-03-22T07:03:50.488Z,53.77
2018-03-22T07:06:18.804Z,53.90
2018-03-22T07:08:47.117Z,53.87
2018-03-22T07:11:16.001Z,54.72
2018-03-22T07:13:46.086Z,54.71
2018-03-22T07:16:14.392Z,54.53
2018-03-22T07:18:42.741Z,54.95
2018-03-22T07:21:11.049Z,58.51
2018-03-22T07:23:39.359Z,59.20
2018-03-22T07:26:08.376Z,59.60
2018-03-22T07:28:36.705Z,58.93
2018-03-22T07:31:05.793Z,57.77
2018-03-22T07:33:34.132Z,55.65
2018-03-22T07:36:02.436Z,54.25
2018-03-22T07:38:30.804Z,54.18
2018-03-22T07:40:59.108Z,52.64
2018-03-22T07:43:32.821Z,52.49
2018-03-22T07:46:01.146Z,52.41
2018-03-22T07:48:29.487Z,51.11
2018-03-22T07:50:58.579Z,49.98
2018-03-22T07:53:27.652Z,49.67
2018-03-22T07:55:56.160Z,48.61
2018-03-22T07:58:25.236Z,48.49
2018-03-22T08:00:53.583Z,48.95
2018-03-22T08:03:21.892Z,49.38
2018-03-22T08:05:50.213Z,47.13
2018-03-22T08:08:18.694Z,47.21
2018-03-22T08:10:47.012Z,45.06
2018-03-22T08:13:15.316Z,44.69
2018-03-22T08:15:43.694Z,45.91
2018-03-22T08:18:12.032Z,46.58
2018-03-22T08:20:40.345Z,45.66
2018-03-22T08:23:08.705Z,44.60
2018-03-22T08:25:37.050Z,42.62
2018-03-22T08:28:05.360Z,42.53
2018-03-22T08:30:33.703Z,41.47
2018-03-22T08:33:06.849Z,41.88
2018-03-22T08:35:35.196Z,41.22
2018-03-22T08:38:03.529Z,41.39
2018-03-22T08:40:31.841Z,41.71
2018-03-22T08:43:00.190Z,40.84
2018-03-22T08:45:29.261Z,40.66
2018-03-22T08:47:58.379Z,41.90
2018-03-22T08:50:26.724Z,39.86
2018-03-22T08:52:55.065Z,40.86
2018-03-22T08:55:23.975Z,42.49
2018-03-22T08:57:52.277Z,42.55
2018-03-22T09:00:20.639Z,39.97
2018-03-22T09:02:49.714Z,39.68
2018-03-22T09:05:18.029Z,39.21
2018-03-22T09:07:46.437Z,39.43
2018-03-22T09:10:15.004Z,41.56
2018-03-22T09:12:43.356Z,42.86
2018-03-22T09:15:11.668Z,43.03
2018-03-22T09:17:40.084Z,43.03
2018-03-22T09:20:09.840Z,42.35
2018-03-22T09:22:38.889Z,38.38
2018-03-22T09:25:07.248Z,36.32
2018-03-22T09:27:35.560Z,35.17
2018-03-22T09:30:03.885Z,34.47
2018-03-22T09:32:32.807Z,34.38
2018-03-22T09:35:01.144Z,33.17
2018-03-22T09:37:30.365Z,30.97
2018-03-22T09:39:58.686Z,29.24
2018-03-22T09:42:27.232Z,29.23
2018-03-22T09:44:55.493Z,29.37
2018-03-22T09:47:23.843Z,30.78
2018-03-22T09:49:52.285Z,32.05
2018-03-22T09:52:20.603Z,32.72
2018-03-22T09:54:48.940Z,31.88
2018-03-22T09:57:17.252Z,31.72
2018-03-22T09:59:45.592Z,32.62
2018-03-22T10:02:13.896Z,32.61
2018-03-22T10:04:42.804Z,35.10
2018-03-22T10:07:11.154Z,35.15
2018-03-22T10:09:41.008Z,34.91
2018-03-22T10:12:09.201Z,32.22
2018-03-22T10:14:38.404Z,33.86
2018-03-22T10:17:06.725Z,33.65
2018-03-22T10:19:34.992Z,34.77
2018-03-22T10:22:03.305Z,33.39
2018-03-22T10:24:31.476Z,32.49
2018-03-22T10:26:59.816Z,31.88
2018-03-22T10:29:28.120Z,30.77
2018-03-22T10:31:56.430Z,32.53
2018-03-22T10:34:25.572Z,31.83
2018-03-22T10:36:53.884Z,33.02
2018-03-22T10:39:22.985Z,31.19
2018-03-22T10:41:51.878Z,31.94
2018-03-22T10:44:20.188Z,32.72
2018-03-22T10:46:48.488Z,32.54
2018-03-22T10:49:16.843Z,30.66
2018-03-22T10:51:45.172Z,30.52
2018-03-22T10:54:13.483Z,29.54
2018-03-22T10:56:41.817Z,30.77
2018-03-22T10:59:10.136Z,30.32
2018-03-22T11:01:44.693Z,31.11
2018-03-22T11:04:13.000Z,30.41
2018-03-22T11:06:41.346Z,29.28
2018-03-22T11:09:09.657Z,29.67
2018-03-22T11:11:38.494Z,30.39
2018-03-22T11:14:06.856Z,31.23
2018-03-22T11:16:35.209Z,30.02
2018-03-22T11:19:03.517Z,31.46
2018-03-22T11:21:31.834Z,31.10
2018-03-22T11:24:00.187Z,34.60
2018-03-22T11:26:28.734Z,34.80
2018-03-22T11:28:57.804Z,33.03
2018-03-22T11:31:26.122Z,34.55
2018-03-22T11:33:54.464Z,35.38
2018-03-22T11:36:22.776Z,34.21
2018-03-22T11:38:51.119Z,34.37
2018-03-22T11:41:19.478Z,34.31
2018-03-22T11:43:47.793Z,36.19
2018-03-22T11:46:16.163Z,36.83
2018-03-22T11:48:46.714Z,37.33
2018-03-22T11:51:15.180Z,36.60
2018-03-22T11:53:43.556Z,37.03
2018-03-22T11:56:11.856Z,37.90
2018-03-22T11:58:40.168Z,39.04
2018-03-22T12:01:08.529Z,39.62
2018-03-22T12:03:37.609Z,41.42
2018-03-22T12:06:06.696Z,41.43
2018-03-22T12:08:35.784Z,40.32
2018-03-22T12:11:04.128Z,40.43
2018-03-22T12:13:32.637Z,42.42
2018-03-22T12:16:00.949Z,43.85
2018-03-22T12:18:29.396Z,44.99
2018-03-22T12:20:57.766Z,45.56
2018-03-22T12:23:26.078Z,47.31
2018-03-22T12:25:54.385Z,45.54
2018-03-22T12:28:23.836Z,47.26
2018-03-22T12:30:52.287Z,47.47
2018-03-22T12:33:20.599Z,47.76
2018-03-22T12:35:49.740Z,48.22
2018-03-22T12:38:18.048Z,48.67
2018-03-22T12:40:46.933Z,48.63
2018-03-22T12:43:15.464Z,46.89
2018-03-22T12:45:43.777Z,46.30
2018-03-22T12:48:12.094Z,46.23
2018-03-22T12:50:40.474Z,47.45
2018-03-22T12:53:08.781Z,48.08
2018-03-22T12:55:37.096Z,47.79
2018-03-22T12:58:05.458Z,50.73
2018-03-22T13:00:34.788Z,53.17
2018-03-22T13:03:03.144Z,53.91
2018-03-22T13:05:31.521Z,53.83
2018-03-22T13:07:59.868Z,53.92
2018-03-22T13:10:28.268Z,55.99
2018-03-22T13:12:57.260Z,58.38
2018-03-22T13:15:26.224Z,57.31
2018-03-22T13:17:54.636Z,58.15
2018-03-22T13:20:23.068Z,60.48
2018-03-22T13:22:51.436Z,59.66
2018-03-22T13:25:19.757Z,59.26
2018-03-22T13:27:48.064Z,59.64
2018-03-22T13:30:17.756Z,59.17
2018-03-22T13:32:46.072Z,59.99
2018-03-22T13:35:14.991Z,62.54
2018-03-22T13:37:43.373Z,64.23
2018-03-22T13:40:11.816Z,64.89
2018-03-22T13:42:40.137Z,64.96
2018-03-22T13:45:09.257Z,64.48
2018-03-22T13:47:42.096Z,62.87
2018-03-22T13:50:10.433Z,64.42
2018-03-22T13:52:38.745Z,66.38
2018-03-22T13:55:07.088Z,67.22
2018-03-22T13:57:35.460Z,67.14
2018-03-22T14:00:03.773Z,67.48
2018-03-22T14:02:32.244Z,67.14
2018-03-22T14:05:00.906Z,66.08
2018-03-22T14:07:29.216Z,66.60
2018-03-22T14:10:00.573Z,67.93
2018-03-22T14:12:28.909Z,66.62
2018-03-22T14:14:57.276Z,67.71
2018-03-22T14:17:25.640Z,68.38
2018-03-22T14:19:53.952Z,67.27
2018-03-22T14:22:22.273Z,64.74
2018-03-22T14:24:50.640Z,66.20
2018-03-22T14:27:18.948Z,67.80
2018-03-22T14:29:47.259Z,67.81
2018-03-22T14:32:16.043Z,67.01
2018-03-22T14:34:44.352Z,67.26
2018-03-22T14:37:12.664Z,67.76
2018-03-22T14:39:41.070Z,68.73
2018-03-22T14:42:09.669Z,68.40
2018-03-22T14:44:38.896Z,67.19
2018-03-22T14:47:07.253Z,67.18
2018-03-22T14:49:35.569Z,66.21
2018-03-22T14:52:04.104Z,66.57
2018-03-22T14:54:32.473Z,65.87
2018-03-22T14:57:00.781Z,65.91
2018-03-22T14:59:29.264Z,66.02
2018-03-22T15:01:57.627Z,65.83
2018-03-22T15:04:25.937Z,65.19
2018-03-22T15:06:54.264Z,66.65
2018-03-22T15:09:23.420Z,66.17
2018-03-22T15:11:51.500Z,66.08
2018-03-22T15:14:19.844Z,65.92
2018-03-22T15:16:48.333Z,65.72
2018-03-22T15:19:16.620Z,64.34
2018-03-22T15:21:45.088Z,64.19
2018-03-22T15:24:13.448Z,63.89
2018-03-22T15:26:41.776Z,63.89
2018-03-22T15:29:10.672Z,64.30
2018-03-22T15:31:39.025Z,63.80
2018-03-22T15:34:07.644Z,64.00
2018-03-22T15:36:35.988Z,64.22
2018-03-22T15:39:04.447Z,64.39
2018-03-22T15:41:33.436Z,64.99
2018-03-22T15:44:01.744Z,65.27
2018-03-22T15:46:30.568Z,65.34
2018-03-22T15:48:58.876Z,64.88
2018-03-22T15:51:27.192Z,65.20
2018-03-22T15:53:56.352Z,66.24
2018-03-22T15:56:24.668Z,67.50
2018-03-22T15:58:53.104Z,68.93
2018-03-22T16:01:21.822Z,69.89
2018-03-22T16:03:50.153Z,69.89
2018-03-22T16:06:18.532Z,70.49
2018-03-22T16:08:46.852Z,71.52
2018-03-22T16:11:15.164Z,73.33
2018-03-22T16:13:43.235Z,74.63
2018-03-22T16:16:12.490Z,76.15
2018-03-22T16:18:40.814Z,78.88
2018-03-22T16:21:09.132Z,79.89
2018-03-22T16:23:38.177Z,79.55
2018-03-22T16:26:06.536Z,80.51
2018-03-22T16:28:34.852Z,80.64
2018-03-22T16:31:03.221Z,80.31
2018-03-22T16:33:31.603Z,80.80
2018-03-22T16:35:59.927Z,81.08
2018-03-22T16:38:28.385Z,80.50
2018-03-22T16:40:56.772Z,81.45
2018-03-22T16:43:25.079Z,82.68
2018-03-22T16:45:53.448Z,83.90
2018-03-22T16:48:21.763Z,84.24
2018-03-22T16:50:50.844Z,85.63
2018-03-22T16:53:19.657Z,87.15
2018-03-22T16:55:48.271Z,87.77
2018-03-22T16:58:16.650Z,88.71
2018-03-22T17:00:44.965Z,89.88
2018-03-22T17:03:13.337Z,90.19
2018-03-22T17:05:41.648Z,90.98
2018-03-22T17:08:09.965Z,91.45
2018-03-22T17:10:39.078Z,91.54
2018-03-22T17:13:07.391Z,91.74
2018-03-22T17:15:36.476Z,92.57
2018-03-22T17:18:05.908Z,92.98
2018-03-22T17:20:34.228Z,92.89
2018-03-22T17:23:02.553Z,93.30
2018-03-22T17:25:30.929Z,93.39
2018-03-22T17:27:59.245Z,93.76
2018-03-22T17:30:27.556Z,93.57
2018-03-22T17:32:55.908Z,93.66
2018-03-22T17:35:24.240Z,94.27
2018-03-22T17:37:54.730Z,94.21
2018-03-22T17:40:23.087Z,94.39
2018-03-22T17:42:51.407Z,94.48
2018-03-22T17:45:19.779Z,94.65
2018-03-22T17:47:48.101Z,94.57
2018-03-22T17:50:16.427Z,94.83
2018-03-22T17:52:45.249Z,94.76
2018-03-22T17:55:13.608Z,94.79
2018-03-22T17:57:41.981Z,94.76
2018-03-22T18:00:10.408Z,94.64
2018-03-22T18:02:38.729Z,94.52
2018-03-22T18:05:07.813Z,94.52
2018-03-22T18:07:36.329Z,94.48
2018-03-22T18:10:04.654Z,94.40
2018-03-22T18:12:33.863Z,94.32
2018-03-22T18:15:02.888Z,94.20
2018-03-22T18:17:33.737Z,94.17
2018-03-22T18:20:02.667Z,94.29
2018-03-22T18:22:31.006Z,94.92
2018-03-22T18:25:00.046Z,94.99
2018-03-22T18:27:28.372Z,94.95
2018-03-22T18:30:00.747Z,94.93
2018-03-22T18:32:29.805Z,94.88
2018-03-22T18:34:59.116Z,95.09
2018-03-22T18:37:28.828Z,94.80
2018-03-22T18:39:58.715Z,94.75
2018-03-22T18:42:27.109Z,94.71
2018-03-22T18:44:58.692Z,94.70
2018-03-22T18:47:28.606Z,94.72
2018-03-22T18:49:58.391Z,94.93
2018-03-22T18:52:26.708Z,94.87
2018-03-22T18:54:55.723Z,94.74
2018-03-22T18:57:24.384Z,94.64
2018-03-22T18:59:53.200Z,94.55
2018-03-22T19:02:21.693Z,94.79
2018-03-22T19:04:49.853Z,94.75
2018-03-22T19:07:18.798Z,94.68
2018-03-22T19:09:47.901Z,94.65
2018-03-22T19:12:16.352Z,94.69
2018-03-22T19:14:45.226Z,94.65
2018-03-22T19:17:13.543Z,94.49
2018-03-22T19:19:42.644Z,94.49
2018-03-22T19:22:11.768Z,94.40
2018-03-22T19:24:40.789Z,94.41
2018-03-22T19:27:09.956Z,94.82
2018-03-22T19:29:38.733Z,94.80
2018-03-22T19:32:08.784Z,94.61
2018-03-22T19:34:38.048Z,94.56
2018-03-22T19:37:07.963Z,94.87
2018-03-22T19:39:36.993Z,94.83
2018-03-22T19:42:05.312Z,95.07
2018-03-22T19:44:33.750Z,94.92
2018-03-22T19:47:03.165Z,94.67
2018-03-22T19:49:31.570Z,94.58
2018-03-22T19:52:00.037Z,94.40
2018-03-22T19:54:29.118Z,94.27
2018-03-22T19:56:58.267Z,94.17
2018-03-22T19:59:28.296Z,94.00
2018-03-22T20:01:57.304Z,93.82
2018-03-22T20:04:27.153Z,93.74
2018-03-22T20:06:57.148Z,93.73
2018-03-22T20:09:29.484Z,93.60
2018-03-22T20:11:58.573Z,93.51
2018-03-22T20:14:26.889Z,93.43
2018-03-22T20:16:56.048Z,93.41
2018-03-22T20:19:26.690Z,93.68
2018-03-22T20:21:57.516Z,93.71
2018-03-22T20:24:26.455Z,93.78
2018-03-22T20:26:55.559Z,93.84
2018-03-22T20:29:27.847Z,93.99
2018-03-22T20:31:57.828Z,94.00
2018-03-22T20:34:27.075Z,93.85
2018-03-22T20:36:55.432Z,93.77
2018-03-22T20:39:23.741Z,93.95
2018-03-22T20:41:52.752Z,94.00
2018-03-22T20:44:21.698Z,94.11
2018-03-22T20:46:52.461Z,94.02
2018-03-22T20:49:20.764Z,94.03
2018-03-22T20:51:49.888Z,94.04
2018-03-22T20:54:19.032Z,94.08
2018-03-22T20:56:48.856Z,93.86
2018-03-22T20:59:17.740Z,94.20
2018-03-22T21:01:46.164Z,94.33
2018-03-22T21:04:15.384Z,94.16
2018-03-22T21:06:43.868Z,93.99
2018-03-22T21:09:12.192Z,93.84
2018-03-22T21:11:40.505Z,93.88
2018-03-22T21:14:10.988Z,93.98
2018-03-22T21:16:39.937Z,94.19
2018-03-22T21:19:08.248Z,94.49
2018-03-22T21:21:38.749Z,94.47
2018-03-22T21:24:07.532Z,94.11
2018-03-22T21:26:35.848Z,93.84
2018-03-22T21:29:04.732Z,93.48
2018-03-22T21:31:33.169Z,93.18
2018-03-22T21:34:05.249Z,92.87
2018-03-22T21:36:33.649Z,92.98
2018-03-22T21:39:02.609Z,93.09
2018-03-22T21:41:33.401Z,93.65
2018-03-22T21:44:16.392Z,94.64
2018-03-22T21:46:45.663Z,94.58
2018-03-22T21:49:14.015Z,94.43
2018-03-22T21:51:42.340Z,94.68
2018-03-22T21:54:12.101Z,95.62
2018-03-22T21:56:41.093Z,96.05
2018-03-22T21:59:10.184Z,96.55
2018-03-22T22:01:39.265Z,96.79
2018-03-22T22:04:15.381Z,96.91
2018-03-22T22:06:43.736Z,96.82
2018-03-22T22:09:12.103Z,96.67
2018-03-22T22:11:41.256Z,96.44
2018-03-22T22:14:09.876Z,96.17
2018-03-22T22:16:38.976Z,95.73
2018-03-22T22:19:08.080Z,95.43
2018-03-22T22:21:37.181Z,95.17
2018-03-22T22:24:05.500Z,94.78
2018-03-22T22:26:33.869Z,94.24
2018-03-22T22:29:03.362Z,93.80
2018-03-22T22:31:31.668Z,93.71
2018-03-22T22:34:00.082Z,93.56
2018-03-22T22:36:29.868Z,93.29
2018-03-22T22:38:58.176Z,93.12
2018-03-22T22:41:31.329Z,93.07
2018-03-22T22:44:00.473Z,93.40
2018-03-22T22:46:31.160Z,93.87
2018-03-22T22:48:59.569Z,94.12
2018-03-22T22:51:27.989Z,93.90
2018-03-22T22:53:56.333Z,93.71
2018-03-22T22:56:25.205Z,94.16
2018-03-22T22:58:53.552Z,94.46
2018-03-22T23:01:22.413Z,94.86
2018-03-22T23:03:50.957Z,95.10
2018-03-22T23:06:19.335Z,94.97
2018-03-22T23:08:47.647Z,94.79
2018-03-22T23:11:15.980Z,94.52
2018-03-22T23:13:44.668Z,94.72
2018-03-22T23:16:17.131Z,94.69
2018-03-22T23:18:45.511Z,94.49
2018-03-22T23:21:13.833Z,94.45
2018-03-22T23:23:42.805Z,94.00
2018-03-22T23:26:11.384Z,93.68
2018-03-22T23:28:39.705Z,93.78
2018-03-22T23:31:08.456Z,93.77
2018-03-22T23:33:37.563Z,93.75
2018-03-22T23:36:07.361Z,93.75
2018-03-22T23:38:36.280Z,93.53
2018-03-22T23:41:04.616Z,93.80
2018-03-22T23:43:33.763Z,94.14
2018-03-22T23:46:02.180Z,94.06
2018-03-22T23:48:31.141Z,94.40
2018-03-22T23:50:59.736Z,94.75
2018-03-22T23:53:28.598Z,95.04
2018-03-22T23:55:56.980Z,95.33
2018-03-22T23:58:25.306Z,95.22
